Time;durP1;ratioP1;P1;durP2;ratioP2;P2;SDS_P1;SDS_P2;PMS_P1;PMS_P2;Temp;Humidity;BMP_temperature;BMP_pressure;BME280_temperature;BME280_humidity;BME280_pressure;Samples;Min_cycle;Max_cycle;Signal;HPM_P1;HPM_P2
2022/12/01 00:00:17;;;;;;;44.72;15.88;;;;;;;4.59;100.00;102424.13;6246832;28;20505;-75
2022/12/01 00:03:19;;;;;;;48.47;15.63;;;;;;;4.61;100.00;102418.91;6247172;28;20041;-75
2022/12/01 00:06:21;;;;;;;35.95;14.43;;;;;;;4.57;100.00;102415.44;6246717;28;20386;-76
2022/12/01 00:12:43;;;;;;;43.00;15.95;;;;;;;4.60;100.00;102419.81;6246797;28;20053;-76
2022/12/01 00:15:44;;;;;;;44.55;15.27;;;;;;;4.55;100.00;102415.47;6246839;28;20053;-75
2022/12/01 00:18:51;;;;;;;55.00;17.55;;;;;;;4.48;100.00;102411.13;6246936;28;20060;-75
2022/12/01 00:21:52;;;;;;;43.00;15.00;;;;;;;4.52;100.00;102410.25;6246595;28;20049;-75
2022/12/01 00:24:54;;;;;;;53.35;17.17;;;;;;;4.49;100.00;102414.59;6246729;28;20160;-75
2022/12/01 00:27:57;;;;;;;42.05;15.40;;;;;;;4.48;100.00;102416.31;6246955;28;20057;-75
2022/12/01 00:30:59;;;;;;;42.75;15.40;;;;;;;4.48;100.00;102415.47;6246627;28;20049;-75
2022/12/01 00:34:01;;;;;;;39.10;16.98;;;;;;;4.45;100.00;102415.44;6246724;28;20139;-75
2022/12/01 00:37:03;;;;;;;46.92;16.38;;;;;;;4.46;100.00;102409.41;6246791;28;20064;-75
2022/12/01 00:40:05;;;;;;;42.33;14.73;;;;;;;4.43;100.00;102415.47;6246381;28;20049;-75
2022/12/01 00:43:08;;;;;;;45.33;15.38;;;;;;;4.49;100.00;102418.06;6246614;28;20405;-75
2022/12/01 00:46:10;;;;;;;46.55;15.98;;;;;;;4.46;100.00;102409.41;6246392;28;20053;-75
2022/12/01 00:49:12;;;;;;;44.95;17.10;;;;;;;4.46;100.00;102418.06;6246773;28;20493;-75
2022/12/01 00:52:15;;;;;;;44.83;18.30;;;;;;;4.39;100.00;102411.13;6246247;28;20050;-75
2022/12/01 00:55:17;;;;;;;61.92;19.50;;;;;;;4.48;100.00;102421.53;6246391;28;20086;-75
2022/12/01 00:58:20;;;;;;;43.25;18.08;;;;;;;4.51;100.00;102425.88;6246386;28;20056;-75
2022/12/01 01:01:21;;;;;;;51.65;16.58;;;;;;;4.47;100.00;102413.72;6246854;28;20052;-75
2022/12/01 01:04:23;;;;;;;44.60;16.95;;;;;;;4.50;100.00;102422.41;6251304;28;20061;-75
2022/12/01 01:07:24;;;;;;;45.78;16.52;;;;;;;4.51;100.00;102425.88;6251269;28;20409;-75
2022/12/01 01:10:26;;;;;;;45.20;16.05;;;;;;;4.55;100.00;102425.00;6251106;28;20060;-75
2022/12/01 01:13:29;;;;;;;51.60;19.23;;;;;;;4.50;100.00;102435.44;6250695;28;20441;-75
2022/12/01 01:16:30;;;;;;;47.67;16.02;;;;;;;4.53;100.00;102439.75;6251116;28;20049;-75
2022/12/01 01:19:32;;;;;;;43.85;16.45;;;;;;;4.54;100.00;102444.97;6250688;28;20421;-75
2022/12/01 01:22:35;;;;;;;39.15;16.70;;;;;;;4.51;100.00;102441.50;6250745;28;20046;-75
2022/12/01 01:25:36;;;;;;;45.85;16.80;;;;;;;4.52;100.00;102443.22;6250504;28;20056;-75
2022/12/01 01:28:40;;;;;;;51.75;18.63;;;;;;;4.48;100.00;102446.69;6250787;28;20513;-75
2022/12/01 01:31:41;;;;;;;53.05;17.50;;;;;;;4.53;100.00;102444.97;6250448;28;20057;-75
2022/12/01 01:34:43;;;;;;;49.13;18.30;;;;;;;4.52;100.00;102454.50;6250591;28;20057;-75
2022/12/01 01:37:44;;;;;;;50.67;17.95;;;;;;;4.54;100.00;102451.88;6250583;28;20052;-75
2022/12/01 01:40:46;;;;;;;54.33;18.25;;;;;;;4.55;100.00;102457.13;6250281;28;20053;-75
2022/12/01 01:43:51;;;;;;;49.95;17.75;;;;;;;4.52;100.00;102451.91;6250297;28;20045;-75
2022/12/01 01:46:53;;;;;;;50.55;17.52;;;;;;;4.54;100.00;102451.88;6250197;28;20073;-75
2022/12/01 01:49:57;;;;;;;43.55;16.02;;;;;;;4.56;100.00;102450.16;6250361;28;20302;-75
2022/12/01 01:53:02;;;;;;;43.03;16.77;;;;;;;4.56;100.00;102452.78;6250055;28;20049;-75
2022/12/01 01:56:05;;;;;;;48.13;18.17;;;;;;;4.52;100.00;102451.03;6250059;28;20057;-75
2022/12/01 01:59:08;;;;;;;45.45;15.82;;;;;;;4.53;100.00;102452.75;6249997;28;20045;-75
2022/12/01 02:02:11;;;;;;;45.53;16.85;;;;;;;4.47;100.00;102448.44;6249726;28;20041;-76
2022/12/01 02:05:16;;;;;;;50.75;17.98;;;;;;;4.51;100.00;102449.31;6249797;28;20050;-75
2022/12/01 02:08:17;;;;;;;54.28;18.23;;;;;;;4.47;100.00;102443.22;6249910;28;20060;-75
2022/12/01 02:11:47;;;;;;;52.78;17.33;;;;;;;4.51;100.00;102442.38;6249483;28;20057;-75
2022/12/01 02:15:05;;;;;;;49.08;17.00;;;;;;;4.52;100.00;102448.44;6249435;28;20060;-75
2022/12/01 02:18:21;;;;;;;38.23;15.13;;;;;;;4.49;100.00;102448.44;6250011;28;20053;-75
2022/12/01 02:21:30;;;;;;;44.75;16.95;;;;;;;4.43;100.00;102444.09;6249210;28;20053;-75
2022/12/01 02:24:55;;;;;;;52.58;17.50;;;;;;;4.46;100.00;102448.44;6249203;28;20540;-75
2022/12/01 02:28:25;;;;;;;57.28;17.13;;;;;;;4.49;100.00;102451.03;6249396;28;20417;-75
2022/12/01 02:31:39;;;;;;;51.55;18.75;;;;;;;4.55;100.00;102449.31;6249002;28;20417;-75
2022/12/01 02:34:45;;;;;;;43.08;16.75;;;;;;;4.56;100.00;102447.56;6249389;28;20045;-75
2022/12/01 02:37:55;;;;;;;45.28;16.10;;;;;;;4.56;100.00;102452.78;6249167;28;20398;-75
2022/12/01 02:41:00;;;;;;;;;;;;;;;4.42;100.00;102442.38;6249162;28;20119;-75
2022/12/01 02:44:05;;;;;;;46.38;17.73;;;;;;;4.37;100.00;102443.25;6249010;28;19921;-75
2022/12/01 02:47:13;;;;;;;47.80;17.15;;;;;;;4.44;100.00;102443.22;6248756;28;20049;-75
2022/12/01 02:50:15;;;;;;;57.42;19.33;;;;;;;4.44;100.00;102447.56;6248950;28;20049;-75
2022/12/01 02:53:18;;;;;;;55.22;18.52;;;;;;;4.46;100.00;102440.63;6248566;28;20042;-75
2022/12/01 02:56:22;;;;;;;51.92;19.42;;;;;;;4.46;100.00;102435.44;6248533;28;20394;-75
2022/12/01 02:59:23;;;;;;;47.70;18.15;;;;;;;4.47;100.00;102438.03;6248481;28;20052;-75
2022/12/01 03:02:41;;;;;;;49.30;17.15;;;;;;;4.50;100.00;102443.25;6248531;28;20382;-75
2022/12/01 03:05:51;;;;;;;54.35;20.45;;;;;;;4.41;100.00;102447.59;6248159;28;20563;-75
2022/12/01 03:09:04;;;;;;;50.35;18.15;;;;;;;4.37;100.00;102444.13;6248529;28;20068;-75
2022/12/01 03:12:15;;;;;;;55.25;19.52;;;;;;;4.44;100.00;102443.22;6248336;28;20049;-75
2022/12/01 03:15:30;;;;;;;56.33;18.92;;;;;;;4.47;100.00;102453.66;6248392;28;20053;-75
2022/12/01 03:18:38;;;;;;;62.53;19.10;;;;;;;4.40;100.00;102440.63;6248444;28;20068;-75
2022/12/01 03:21:44;;;;;;;62.55;20.10;;;;;;;4.46;100.00;102438.03;6247918;28;20045;-75
2022/12/01 03:24:49;;;;;;;50.28;17.48;;;;;;;4.46;100.00;102441.50;6247558;28;20053;-75
2022/12/01 03:27:55;;;;;;;48.97;19.60;;;;;;;4.40;100.00;102440.63;6248209;28;20516;-76
2022/12/01 03:31:00;;;;;;;50.20;19.40;;;;;;;4.45;100.00;102431.97;6247611;28;20049;-75
2022/12/01 03:34:09;;;;;;;51.47;17.23;;;;;;;4.45;100.00;102441.47;6248061;28;20496;-75
2022/12/01 03:37:16;;;;;;;54.20;20.90;;;;;;;4.44;100.00;102438.00;6247854;28;20049;-75
2022/12/01 03:40:24;;;;;;;64.53;19.92;;;;;;;4.44;100.00;102435.41;6246695;28;20056;-76
2022/12/01 03:43:30;;;;;;;50.45;18.00;;;;;;;4.38;100.00;102429.38;6247631;28;20045;-75
2022/12/01 03:46:41;;;;;;;49.83;18.73;;;;;;;4.37;100.00;102435.44;6247559;28;20504;-75
2022/12/01 03:49:45;;;;;;;58.58;19.25;;;;;;;4.32;100.00;102438.91;6247356;28;20743;-75
2022/12/01 03:52:55;;;;;;;56.55;19.02;;;;;;;4.39;100.00;102431.09;6247373;28;20045;-75
2022/12/01 03:56:02;;;;;;;64.40;19.00;;;;;;;4.38;100.00;102442.38;6247663;28;20052;-75
2022/12/01 03:59:06;;;;;;;54.00;18.10;;;;;;;4.42;100.00;102447.56;6247406;28;20049;-75
2022/12/01 04:02:07;;;;;;;54.72;20.15;;;;;;;4.33;100.00;102445.84;6247156;28;20527;-75
2022/12/01 04:05:11;;;;;;;57.92;20.02;;;;;;;4.36;100.00;102451.91;6246941;28;20083;-75
2022/12/01 04:08:12;;;;;;;60.25;19.65;;;;;;;4.31;100.00;102450.19;6247322;28;20045;-75
2022/12/01 04:14:29;;;;;;;56.50;18.52;;;;;;;4.32;100.00;102451.91;6224268;28;20049;-75
2022/12/01 04:17:31;;;;;;;75.82;18.55;;;;;;;4.35;100.00;102456.25;6247062;28;20049;-75
2022/12/01 04:20:34;;;;;;;55.83;20.40;;;;;;;4.26;100.00;102454.50;6246868;28;20057;-75
2022/12/01 04:26:55;;;;;;;65.60;19.98;;;;;;;4.26;100.00;102469.25;6246963;28;20493;-75
2022/12/01 04:29:56;;;;;;;67.97;21.38;;;;;;;4.29;100.00;102462.31;6246749;28;20054;-75
2022/12/01 04:32:57;;;;;;;59.20;20.83;;;;;;;4.35;100.00;102466.66;6246614;28;20049;-75
2022/12/01 04:36:01;;;;;;;61.25;20.20;;;;;;;4.33;100.00;102471.00;6246393;28;20060;-75
2022/12/01 04:39:03;;;;;;;51.92;18.50;;;;;;;4.36;100.00;102473.63;6246649;28;20049;-75
2022/12/01 04:42:04;;;;;;;60.35;19.50;;;;;;;4.32;100.00;102477.09;6246308;28;20682;-75
2022/12/01 04:45:07;;;;;;;56.33;19.48;;;;;;;4.32;100.00;102467.53;6246781;28;20057;-75
2022/12/01 04:48:08;;;;;;;55.65;18.17;;;;;;;4.40;100.00;102471.84;6246673;28;20045;-75
2022/12/01 04:51:11;;;;;;;62.58;18.90;;;;;;;4.32;100.00;102471.88;6246382;28;20056;-76
2022/12/01 04:54:12;;;;;;;61.03;18.60;;;;;;;4.29;100.00;102466.66;6246456;28;20050;-75
2022/12/01 04:57:14;;;;;;;48.35;17.65;;;;;;;4.30;100.00;102457.97;6246377;28;20080;-75
2022/12/01 05:00:15;;;;;;;68.50;19.83;;;;;;;4.31;100.00;102470.13;6246476;28;20067;-75
2022/12/01 05:03:17;;;;;;;64.30;20.98;;;;;;;4.20;100.00;102467.53;6245987;28;20045;-75
2022/12/01 05:06:23;;;;;;;53.35;19.73;;;;;;;4.20;100.00;102461.44;6246386;28;20160;-75
2022/12/01 05:09:24;;;;;;;51.00;19.35;;;;;;;4.19;100.00;102463.19;6235168;28;20050;-75
2022/12/01 05:12:26;;;;;;;65.32;20.98;;;;;;;4.26;100.00;102454.50;6221420;28;20053;-75
2022/12/01 05:15:27;;;;;;;68.20;21.33;;;;;;;4.27;100.00;102473.59;6213287;28;20058;-75
2022/12/01 05:18:28;;;;;;;52.55;19.27;;;;;;;4.27;100.00;102466.66;6197111;28;20453;-75
2022/12/01 05:21:30;;;;;;;55.83;19.52;;;;;;;4.27;100.00;102468.38;6197345;28;20061;-75
2022/12/01 05:24:32;;;;;;;56.55;20.60;;;;;;;4.25;100.00;102470.13;6209234;28;20513;-75
2022/12/01 05:27:33;;;;;;;70.05;23.08;;;;;;;4.25;100.00;102468.38;6207266;28;20061;-75
2022/12/01 05:30:35;;;;;;;57.72;19.95;;;;;;;4.29;100.00;102477.06;6207370;28;20061;-75
2022/12/01 05:33:36;;;;;;;57.53;18.50;;;;;;;4.20;100.00;102474.47;6197479;28;20050;-75
2022/12/01 05:36:39;;;;;;;66.13;21.55;;;;;;;4.17;100.00;102474.44;6197110;28;20054;-75
2022/12/01 05:39:40;;;;;;;58.17;18.73;;;;;;;4.15;100.00;102463.19;6197047;28;20053;-75
2022/12/01 05:42:42;;;;;;;55.08;18.02;;;;;;;4.13;100.00;102475.31;6197044;28;20046;-75
2022/12/01 05:45:43;;;;;;;55.97;20.00;;;;;;;4.07;100.00;102473.56;6196745;28;20421;-75
2022/12/01 05:48:46;;;;;;;64.25;21.05;;;;;;;4.16;100.00;102473.59;6199714;28;20050;-75
2022/12/01 05:51:48;;;;;;;58.42;21.13;;;;;;;4.13;100.00;102477.91;6200793;28;20449;-75
2022/12/01 05:54:50;;;;;;;63.15;19.50;;;;;;;4.14;100.00;102475.34;6216726;28;20116;-75
2022/12/01 05:57:51;;;;;;;66.45;20.02;;;;;;;4.14;100.00;102477.94;6221224;28;20050;-75
2022/12/01 06:00:53;;;;;;;70.97;19.90;;;;;;;4.14;100.00;102479.66;6212164;28;20053;-75
2022/12/01 06:03:54;;;;;;;60.17;18.85;;;;;;;4.18;100.00;102490.09;6211878;28;20046;-75
2022/12/01 06:06:57;;;;;;;57.90;19.65;;;;;;;4.12;100.00;102494.41;6202661;28;20050;-75
2022/12/01 06:09:58;;;;;;;63.72;19.77;;;;;;;4.17;100.00;102490.94;6205608;28;20057;-75
2022/12/01 06:13:00;;;;;;;62.40;20.45;;;;;;;4.18;100.00;102484.88;6211242;28;20049;-75
2022/12/01 06:16:04;;;;;;;56.95;18.70;;;;;;;4.15;100.00;102484.88;6212679;28;20057;-75
2022/12/01 06:19:05;;;;;;;53.85;19.85;;;;;;;4.11;100.00;102484.84;6212666;28;20050;-75
2022/12/01 06:22:09;;;;;;;72.82;20.30;;;;;;;4.11;100.00;102484.84;6210226;28;20053;-75
2022/12/01 06:25:11;;;;;;;72.00;20.17;;;;;;;4.08;100.00;102485.72;6212185;28;20046;-75
2022/12/01 06:28:12;;;;;;;67.20;19.20;;;;;;;4.08;100.00;102483.09;6207625;28;20387;-75
2022/12/01 06:31:14;;;;;;;60.70;20.83;;;;;;;4.08;100.00;102491.78;6200195;28;20054;-75
2022/12/01 06:34:15;;;;;;;68.78;20.65;;;;;;;4.09;100.00;102497.88;6200199;28;20430;-75
2022/12/01 06:37:18;;;;;;;63.92;22.65;;;;;;;4.08;100.00;102510.00;6200264;28;20046;-75
2022/12/01 06:40:20;;;;;;;66.57;20.77;;;;;;;4.15;100.00;102513.50;6202343;28;20065;-75
2022/12/01 06:43:21;;;;;;;77.50;22.88;;;;;;;4.12;100.00;102505.66;6210452;28;20054;-75
2022/12/01 06:46:23;;;;;;;75.10;24.58;;;;;;;4.06;100.00;102505.66;6210398;28;20053;-75
2022/12/01 06:49:24;;;;;;;66.28;20.88;;;;;;;4.06;100.00;102518.66;6210847;28;20443;-76
2022/12/01 06:52:27;;;;;;;58.28;18.08;;;;;;;4.13;100.00;102525.59;6209396;28;20049;-75
2022/12/01 06:55:29;;;;;;;68.05;21.40;;;;;;;4.02;100.00;102525.59;6211496;28;20141;-75
2022/12/01 06:58:31;;;;;;;81.70;22.92;;;;;;;4.01;100.00;102523.88;6208240;28;20502;-75
2022/12/01 07:01:33;;;;;;;61.72;21.30;;;;;;;3.99;100.00;102522.97;6208539;28;20057;-75
2022/12/01 07:04:34;;;;;;;74.18;22.23;;;;;;;4.00;100.00;102526.47;6210836;28;20046;-75
2022/12/01 07:07:38;;;;;;;70.82;22.40;;;;;;;3.91;100.00;102529.06;6209359;28;20046;-75
2022/12/01 07:10:39;;;;;;;69.18;19.13;;;;;;;4.01;100.00;102534.28;6210156;28;20048;-75
2022/12/01 07:13:44;;;;;;;60.38;21.50;;;;;;;3.95;100.00;102541.16;6209949;28;20077;-75
2022/12/01 07:16:45;;;;;;;69.20;23.73;;;;;;;3.87;100.00;102532.50;6209395;28;20049;-75
2022/12/01 07:19:46;;;;;;;61.25;20.38;;;;;;;3.92;100.00;102534.25;6210548;28;20046;-74
2022/12/01 07:22:49;;;;;;;60.70;19.55;;;;;;;3.98;100.00;102534.25;6208787;28;20050;-74
2022/12/01 07:25:58;;;;;;;56.92;17.90;;;;;;;3.96;100.00;102535.13;6217209;28;20066;-75
2022/12/01 07:28:59;;;;;;;81.28;22.40;;;;;;;3.90;100.00;102540.28;6223391;28;20529;-75
2022/12/01 07:32:01;;;;;;;64.55;20.60;;;;;;;3.89;100.00;102536.81;6223160;28;20129;-75
2022/12/01 07:35:02;;;;;;;66.68;20.83;;;;;;;3.92;100.00;102533.38;6223203;28;20053;-75
2022/12/01 07:38:05;;;;;;;69.28;21.45;;;;;;;3.93;100.00;102538.56;6223344;28;20050;-75
2022/12/01 07:41:08;;;;;;;67.40;20.17;;;;;;;3.86;100.00;102544.63;6223091;28;20057;-75
2022/12/01 07:44:10;;;;;;;83.90;21.80;;;;;;;3.77;100.00;102541.97;6222873;28;20054;-75
2022/12/01 07:47:12;;;;;;;85.78;22.80;;;;;;;3.68;100.00;102547.13;6223274;28;20057;-75
2022/12/01 07:50:13;;;;;;;81.13;21.90;;;;;;;3.60;100.00;102546.25;6222715;28;20529;-75
2022/12/01 07:53:16;;;;;;;85.45;22.77;;;;;;;3.54;100.00;102552.28;6222954;28;20534;-75
2022/12/01 07:56:19;;;;;;;71.90;21.60;;;;;;;3.58;100.00;102550.56;6222942;28;20046;-75
2022/12/01 07:59:20;;;;;;;86.32;22.17;;;;;;;3.60;100.00;102556.66;6222959;28;20053;-75
2022/12/01 08:02:21;;;;;;;74.97;20.08;;;;;;;3.63;100.00;102556.66;6221770;28;20056;-75
2022/12/01 08:05:23;;;;;;;83.03;20.52;;;;;;;3.61;100.00;102561.00;6212732;28;20422;-75
2022/12/01 08:08:26;;;;;;;72.30;22.10;;;;;;;3.55;100.00;102561.84;6198310;28;20058;-75
2022/12/01 08:11:29;;;;;;;94.75;24.77;;;;;;;3.56;100.00;102563.56;6197487;28;20055;-76
2022/12/01 08:14:30;;;;;;;87.72;24.48;;;;;;;3.57;100.00;102567.91;6202784;28;20521;-75
2022/12/01 08:17:32;;;;;;;75.50;21.30;;;;;;;3.54;100.00;102567.88;6221762;28;20050;-75
2022/12/01 08:20:33;;;;;;;79.32;20.77;;;;;;;3.50;100.00;102571.34;6222451;28;20045;-75
2022/12/01 08:23:36;;;;;;;87.65;22.48;;;;;;;3.53;100.00;102580.00;6222161;28;20413;-75
2022/12/01 08:26:37;;;;;;;107.53;24.35;;;;;;;3.51;100.00;102578.28;6222437;28;20045;-75
2022/12/01 08:29:39;;;;;;;75.53;23.13;;;;;;;3.45;100.00;102584.31;6219491;28;20050;-74
2022/12/01 08:32:40;;;;;;;72.38;18.77;;;;;;;3.39;100.00;102591.19;6228691;28;20046;-74
2022/12/01 08:35:42;;;;;;;83.38;21.67;;;;;;;3.36;100.00;102589.47;6222019;28;20061;-74
2022/12/01 08:38:46;;;;;;;83.30;20.40;;;;;;;3.35;100.00;102590.28;6222081;28;20046;-74
2022/12/01 08:41:47;;;;;;;74.13;19.90;;;;;;;3.42;100.00;102596.41;6222140;28;20046;-74
2022/12/01 08:44:49;;;;;;;75.93;19.63;;;;;;;3.31;100.00;102599.78;6221792;28;20252;-74
2022/12/01 08:47:50;;;;;;;76.90;22.02;;;;;;;3.34;100.00;102600.69;6222092;28;20049;-74
2022/12/01 08:53:55;;;;;;;71.55;19.77;;;;;;;3.15;100.00;102597.97;6275752;23;20057;-74
2022/12/01 08:56:56;;;;;;;82.03;20.95;;;;;;;3.19;100.00;102602.31;6246622;28;20497;-75
2022/12/01 08:59:58;;;;;;;68.03;17.83;;;;;;;3.24;100.00;102597.16;6246246;28;20056;-74
2022/12/01 09:03:00;;;;;;;68.15;22.02;;;;;;;3.30;100.00;102597.19;6246203;28;20053;-74
2022/12/01 09:06:04;;;;;;;70.20;18.73;;;;;;;3.25;100.00;102607.56;6246069;28;20049;-74
2022/12/01 09:09:07;;;;;;;85.32;19.67;;;;;;;3.36;100.00;102602.44;6246514;28;20452;-74
2022/12/01 09:12:09;;;;;;;77.85;22.30;;;;;;;3.26;100.00;102601.50;6246309;28;20049;-73
2022/12/01 09:15:11;;;;;;;63.63;19.08;;;;;;;3.28;100.00;102604.13;6246492;28;20077;-74
2022/12/01 09:18:12;;;;;;;66.93;16.70;;;;;;;3.20;100.00;102605.78;6246199;28;20056;-74
2022/12/01 09:21:15;;;;;;;72.28;19.48;;;;;;;3.26;100.00;102601.50;6246362;28;20516;-73
2022/12/01 09:24:18;;;;;;;66.45;17.70;;;;;;;3.34;100.00;102611.09;6249588;28;20045;-73
2022/12/01 09:27:20;;;;;;;68.70;16.88;;;;;;;3.37;100.00;102598.13;6250771;28;20397;-73
2022/12/01 09:30:21;;;;;;;51.38;15.50;;;;;;;3.29;100.00;102603.25;6250598;28;20057;-74
2022/12/01 09:33:22;;;;;;;64.07;17.45;;;;;;;3.40;100.00;102603.31;6250371;28;20056;-73
2022/12/01 09:36:24;;;;;;;56.47;18.25;;;;;;;3.36;100.00;102602.44;6250619;28;20050;-73
2022/12/01 09:39:28;;;;;;;53.20;16.17;;;;;;;3.42;100.00;102602.47;6236217;28;20486;-74
2022/12/01 09:42:30;;;;;;;63.83;16.08;;;;;;;3.45;100.00;102606.81;6225629;28;20536;-73
2022/12/01 09:45:36;;;;;;;45.30;15.80;;;;;;;3.47;100.00;102608.56;6225416;28;20427;-74
2022/12/01 09:48:42;;;;;;;51.95;16.88;;;;;;;3.50;100.00;102611.19;6226196;28;20060;-74
2022/12/01 09:51:44;;;;;;;54.38;15.88;;;;;;;3.53;100.00;102608.59;6225588;28;20053;-73
2022/12/01 09:54:47;;;;;;;49.08;15.93;;;;;;;3.53;100.00;102606.00;6225650;28;20050;-74
2022/12/01 09:57:50;;;;;;;54.50;15.95;;;;;;;3.60;100.00;102604.31;6225592;28;20049;-74
2022/12/01 10:00:54;;;;;;;45.95;13.48;;;;;;;3.54;100.00;102599.06;6225565;28;20060;-74
2022/12/01 10:03:59;;;;;;;48.15;14.38;;;;;;;3.64;100.00;102593.06;6225223;28;20099;-73
2022/12/01 10:07:04;;;;;;;46.45;14.82;;;;;;;3.67;100.00;102597.41;6258040;28;20059;-73
2022/12/01 10:10:14;;;;;;;44.90;14.10;;;;;;;3.59;100.00;102602.59;6274525;28;20059;-73
2022/12/01 10:13:18;;;;;;;51.65;15.15;;;;;;;3.59;100.00;102599.09;6254299;28;20183;-73
2022/12/01 10:16:26;;;;;;;43.53;15.55;;;;;;;3.57;100.00;102599.09;6249570;28;20050;-74
2022/12/01 10:19:35;;;;;;;53.10;15.25;;;;;;;3.54;100.00;102599.06;6265602;28;20060;-73
2022/12/01 10:23:06;;;;;;;51.67;14.65;;;;;;;3.56;100.00;102595.63;6273878;28;20543;-74
2022/12/01 10:26:13;;;;;;;50.75;15.93;;;;;;;3.60;100.00;102596.53;6224887;28;20053;-73
2022/12/01 10:29:26;;;;;;;42.33;13.07;;;;;;;3.51;100.00;102588.66;6224760;28;20050;-74
2022/12/01 10:32:33;;;;;;;47.58;13.80;;;;;;;3.51;100.00;102584.34;6224488;28;20058;-73
2022/12/01 10:35:38;;;;;;;47.28;15.50;;;;;;;3.55;100.00;102586.09;6234120;28;20044;-73
2022/12/01 10:38:39;;;;;;;49.28;15.43;;;;;;;3.47;100.00;102592.13;6238437;28;20042;-73
2022/12/01 10:41:42;;;;;;;56.63;15.02;;;;;;;3.52;100.00;102585.22;6234774;28;20069;-73
2022/12/01 10:44:45;;;;;;;46.95;16.15;;;;;;;3.49;100.00;102583.44;6235169;28;20395;-73
2022/12/01 10:48:08;;;;;;;46.80;12.45;;;;;;;3.54;100.00;102588.66;6234016;28;20060;-73
2022/12/01 10:51:15;;;;;;;48.70;15.10;;;;;;;3.59;100.00;102583.50;6231402;28;20050;-74
2022/12/01 10:54:18;;;;;;;38.78;13.52;;;;;;;3.69;100.00;102578.38;6226378;28;20083;-73
2022/12/01 10:57:21;;;;;;;47.47;12.77;;;;;;;3.65;100.00;102581.81;6229900;28;20054;-73
2022/12/01 11:00:24;;;;;;;42.00;14.68;;;;;;;3.68;100.00;102575.75;6261255;28;20471;-73
2022/12/01 11:03:28;;;;;;;46.78;14.95;;;;;;;3.55;100.00;102570.50;6264769;28;20072;-75
2022/12/01 11:06:31;;;;;;;48.08;13.40;;;;;;;3.62;100.00;102578.31;6273242;28;20055;-75
2022/12/01 11:09:32;;;;;;;47.78;13.18;;;;;;;3.68;100.00;102583.53;6273335;28;20052;-75
2022/12/01 11:12:35;;;;;;;49.08;14.77;;;;;;;3.64;100.00;102582.69;6267373;28;20060;-74
2022/12/01 11:15:40;;;;;;;66.15;15.82;;;;;;;3.54;100.00;102578.28;6263987;28;20056;-75
2022/12/01 11:18:41;;;;;;;46.13;15.20;;;;;;;3.58;100.00;102574.81;6273106;28;20404;-75
2022/12/01 11:21:46;;;;;;;45.80;13.75;;;;;;;3.57;100.00;102573.09;6272637;28;20653;-75
2022/12/01 11:24:59;;;;;;;43.22;12.25;;;;;;;3.70;100.00;102569.69;6257459;28;20046;-74
2022/12/01 11:28:03;;;;;;;37.13;12.93;;;;;;;3.63;100.00;102573.13;6248376;28;20049;-75
2022/12/01 11:31:07;;;;;;;51.67;12.00;;;;;;;3.74;100.00;102560.19;6247855;28;20053;-75
2022/12/01 11:34:19;;;;;;;50.35;13.15;;;;;;;3.70;100.00;102559.28;6247605;28;20063;-75
2022/12/01 11:37:24;;;;;;;40.88;12.77;;;;;;;3.80;100.00;102562.81;6261390;28;20052;-74
2022/12/01 11:40:27;;;;;;;40.03;13.32;;;;;;;3.85;100.00;102561.09;6250102;28;20428;-74
2022/12/01 11:43:34;;;;;;;36.10;12.30;;;;;;;3.76;100.00;102563.66;6247251;28;20402;-74
2022/12/01 11:46:41;;;;;;;46.30;13.73;;;;;;;3.83;100.00;102567.16;6246803;28;20053;-74
2022/12/01 11:49:45;;;;;;;55.75;12.88;;;;;;;3.82;100.00;102568.91;6247805;28;20497;-74
2022/12/01 11:52:47;;;;;;;46.97;14.45;;;;;;;3.85;100.00;102565.41;6245423;28;20052;-74
2022/12/01 11:55:48;;;;;;;43.97;12.50;;;;;;;3.84;100.00;102567.16;6247522;28;20045;-74
2022/12/01 11:58:58;;;;;;;50.78;14.18;;;;;;;3.95;100.00;102554.19;6247132;28;20083;-75
2022/12/01 12:02:13;;;;;;;49.40;14.55;;;;;;;3.91;100.00;102560.25;6232342;28;20056;-75
2022/12/01 12:05:39;;;;;;;47.53;14.65;;;;;;;4.03;100.00;102565.47;6222491;28;20056;-75
2022/12/01 12:08:56;;;;;;;55.80;15.55;;;;;;;3.94;100.00;102560.25;6222581;28;20060;-74
2022/12/01 12:12:11;;;;;;;47.30;14.73;;;;;;;3.93;100.00;102556.78;6222646;28;20498;-75
2022/12/01 12:15:23;;;;;;;55.22;15.63;;;;;;;3.95;100.00;102551.56;6231756;28;20053;-75
2022/12/01 12:18:55;;;;;;;47.58;14.32;;;;;;;3.86;100.00;102552.44;6234746;28;20049;-75
2022/12/01 12:22:13;;;;;;;54.70;14.65;;;;;;;3.78;100.00;102549.81;6238401;28;20052;-75
2022/12/01 12:25:30;;;;;;;46.17;13.93;;;;;;;3.65;100.00;102549.75;6245901;28;20045;-75
2022/12/01 12:28:44;;;;;;;51.08;14.10;;;;;;;3.74;100.00;102547.19;6247022;28;20045;-75
2022/12/01 12:32:00;;;;;;;47.08;14.45;;;;;;;3.73;100.00;102543.72;6245164;28;20416;-73
2022/12/01 12:35:15;;;;;;;36.42;12.45;;;;;;;3.84;100.00;102535.09;6248450;28;20052;-74
2022/12/01 12:38:33;;;;;;;41.30;12.43;;;;;;;3.88;100.00;102532.50;6252064;28;20601;-75
2022/12/01 12:41:39;;;;;;;40.33;14.27;;;;;;;3.86;100.00;102534.25;6220981;28;20056;-75
2022/12/01 12:44:49;;;;;;;33.60;12.15;;;;;;;3.79;100.00;102525.53;6220849;28;20300;-75
2022/12/01 12:48:08;;;;;;;36.55;10.98;;;;;;;3.75;100.00;102517.72;6221042;28;20068;-75
2022/12/01 12:51:13;;;;;;;;;;;;;;;3.82;100.00;102535.09;6221110;28;20079;-75
2022/12/01 12:54:23;;;;;;;28.35;9.88;;;;;;;3.78;100.00;102529.00;6221092;28;19922;-75
2022/12/01 12:57:29;;;;;;;31.73;10.75;;;;;;;3.71;100.00;102526.38;6250818;28;20489;-75
2022/12/01 13:00:31;;;;;;;33.35;11.15;;;;;;;3.69;100.00;102515.97;6274023;28;20055;-75
2022/12/01 13:03:43;;;;;;;32.03;9.95;;;;;;;3.74;100.00;102519.44;6274729;28;20053;-75
2022/12/01 13:06:48;;;;;;;27.30;9.45;;;;;;;3.76;100.00;102522.91;6275334;28;20054;-75
2022/12/01 13:09:55;;;;;;;31.48;10.40;;;;;;;3.72;100.00;102526.34;6274513;28;20049;-75
2022/12/01 13:13:10;;;;;;;38.75;10.32;;;;;;;3.67;100.00;102522.00;6274807;28;20128;-74
2022/12/01 13:16:15;;;;;;;30.63;10.85;;;;;;;3.60;100.00;102531.53;6263931;28;20041;-74
2022/12/01 13:19:21;;;;;;;38.90;12.90;;;;;;;3.66;100.00;102522.88;6226840;28;20060;-74
2022/12/01 13:22:29;;;;;;;27.45;9.95;;;;;;;3.65;100.00;102523.75;6226164;28;20436;-75
2022/12/01 13:25:34;;;;;;;39.67;10.68;;;;;;;3.72;100.00;102523.75;6247194;28;20053;-74
2022/12/01 13:28:41;;;;;;;30.73;10.32;;;;;;;3.70;100.00;102520.31;6250807;28;20057;-75
2022/12/01 13:31:45;;;;;;;31.63;11.55;;;;;;;3.69;100.00;102523.75;6250735;28;20054;-75
2022/12/01 13:34:48;;;;;;;31.25;10.45;;;;;;;3.67;100.00;102524.59;6250225;28;20046;-74
2022/12/01 13:37:49;;;;;;;37.05;12.20;;;;;;;3.68;100.00;102542.84;6267776;28;20056;-74
2022/12/01 13:41:13;;;;;;;35.13;11.10;;;;;;;3.70;100.00;102535.03;6250237;28;20053;-74
2022/12/01 13:44:24;;;;;;;31.58;10.43;;;;;;;3.58;100.00;102533.25;6250723;28;20045;-74
2022/12/01 13:47:38;;;;;;;38.53;11.63;;;;;;;3.55;100.00;102531.50;6250301;28;20049;-75
2022/12/01 13:51:03;;;;;;;40.63;11.27;;;;;;;3.58;100.00;102537.56;6250280;28;20535;-75
2022/12/01 13:54:26;;;;;;;37.13;12.55;;;;;;;3.58;100.00;102532.38;6250073;28;20056;-74
2022/12/01 13:57:29;;;;;;;36.13;12.23;;;;;;;3.64;100.00;102535.03;6250013;28;20052;-75
2022/12/01 14:00:33;;;;;;;41.35;12.90;;;;;;;3.68;100.00;102547.13;6250024;28;20398;-74
2022/12/01 14:03:40;;;;;;;37.10;11.35;;;;;;;3.68;100.00;102540.25;6249797;28;20401;-74
2022/12/01 14:06:48;;;;;;;41.83;13.05;;;;;;;3.65;100.00;102541.94;6249854;28;20408;-75
2022/12/01 14:09:52;;;;;;;29.60;9.60;;;;;;;3.66;100.00;102548.88;6248988;28;20071;-74
2022/12/01 14:12:57;;;;;;;30.58;11.48;;;;;;;3.65;100.00;102544.56;6250016;28;20071;-74